createdAt,value
2023-04-26T00:00:11.603Z,64.71
2023-04-26T00:02:38.193Z,64.59
2023-04-26T00:05:05.407Z,64.18
2023-04-26T00:07:32.111Z,63.76
2023-04-26T00:09:58.586Z,64.02
2023-04-26T00:12:25.214Z,64.28
2023-04-26T00:14:51.710Z,64.09
2023-04-26T00:17:18.202Z,64.28
2023-04-26T00:19:44.651Z,65.24
2023-04-26T00:22:11.103Z,64.57
2023-04-26T00:24:37.602Z,64.27
2023-04-26T00:27:04.886Z,65.65
2023-04-26T00:29:31.437Z,65.49
2023-04-26T00:31:57.926Z,65.67
2023-04-26T00:34:24.455Z,64.98
2023-04-26T00:36:50.915Z,65.09
2023-04-26T00:39:17.404Z,66.23
2023-04-26T00:41:43.846Z,65.52
2023-04-26T00:44:10.358Z,65.55
2023-04-26T00:46:36.859Z,65.93
2023-04-26T00:49:03.555Z,65.84
2023-04-26T00:51:30.073Z,65.61
2023-04-26T00:53:57.026Z,66.46
2023-04-26T00:56:25.075Z,66.95
2023-04-26T00:58:52.168Z,66.50
2023-04-26T01:01:18.871Z,66.83
2023-04-26T01:03:46.133Z,66.36
2023-04-26T01:06:12.732Z,67.48
2023-04-26T01:08:39.634Z,67.25
2023-04-26T01:11:06.223Z,67.20
2023-04-26T01:13:33.194Z,67.13
2023-04-26T01:15:59.963Z,67.52
2023-04-26T01:18:26.858Z,67.51
2023-04-26T01:20:53.310Z,67.78
2023-04-26T01:23:19.799Z,67.20
2023-04-26T01:25:46.323Z,67.81
2023-04-26T01:28:12.812Z,68.21
2023-04-26T01:30:39.319Z,67.67
2023-04-26T01:33:05.900Z,68.18
2023-04-26T01:35:32.436Z,68.04
2023-04-26T01:37:58.941Z,68.55
2023-04-26T01:40:27.778Z,67.63
2023-04-26T01:42:54.356Z,68.05
2023-04-26T01:45:20.834Z,68.88
2023-04-26T01:48:06.291Z,68.43
2023-04-26T01:50:33.099Z,69.21
2023-04-26T01:52:59.585Z,68.23
2023-04-26T01:55:26.097Z,68.43
2023-04-26T01:57:52.545Z,68.61
2023-04-26T02:00:19.555Z,69.53
2023-04-26T02:02:49.082Z,69.92
2023-04-26T02:05:15.724Z,69.98
2023-04-26T02:07:42.242Z,69.46
2023-04-26T02:10:09.156Z,69.89
2023-04-26T02:12:35.637Z,70.17
2023-04-26T02:15:02.187Z,70.79
2023-04-26T02:17:28.773Z,70.44
2023-04-26T02:19:55.280Z,70.77
2023-04-26T02:22:21.750Z,71.00
2023-04-26T02:24:50.087Z,70.60
2023-04-26T02:27:16.541Z,71.17
2023-04-26T02:29:44.765Z,70.56
2023-04-26T02:32:13.179Z,70.78
2023-04-26T02:34:39.734Z,71.44
2023-04-26T02:37:06.442Z,70.57
2023-04-26T02:39:33.058Z,70.75
2023-04-26T02:41:59.608Z,70.73
2023-04-26T02:44:29.311Z,70.81
2023-04-26T02:46:56.475Z,71.61
2023-04-26T02:49:23.122Z,70.61
2023-04-26T02:51:49.634Z,71.84
2023-04-26T02:54:16.242Z,71.69
2023-04-26T02:56:42.689Z,71.13
2023-04-26T02:59:09.204Z,71.05
2023-04-26T03:01:35.795Z,71.66
2023-04-26T03:04:02.461Z,71.67
2023-04-26T03:06:29.066Z,72.24
2023-04-26T03:08:55.632Z,71.31
2023-04-26T03:11:22.133Z,72.02
2023-04-26T03:13:48.681Z,71.85
2023-04-26T03:16:15.425Z,71.82
2023-04-26T03:18:42.058Z,72.92
2023-04-26T03:21:09.300Z,72.32
2023-04-26T03:23:35.771Z,71.90
2023-04-26T03:26:02.326Z,72.64
2023-04-26T03:28:29.713Z,73.24
2023-04-26T03:30:56.397Z,72.49
2023-04-26T03:33:23.723Z,72.36
2023-04-26T03:35:50.283Z,72.65
2023-04-26T03:38:17.395Z,73.38
2023-04-26T03:40:44.953Z,72.56
2023-04-26T03:43:11.443Z,72.07
2023-04-26T03:45:38.352Z,72.55
2023-04-26T03:48:05.129Z,72.54
2023-04-26T03:50:31.664Z,73.16
2023-04-26T03:52:58.230Z,72.77
2023-04-26T03:55:24.878Z,73.61
2023-04-26T03:57:51.358Z,73.52
2023-04-26T04:00:17.918Z,74.41
2023-04-26T04:02:44.815Z,74.03
2023-04-26T04:05:19.099Z,73.77
2023-04-26T04:07:45.697Z,74.51
2023-04-26T04:10:13.575Z,74.32
2023-04-26T04:12:41.682Z,74.92
2023-04-26T04:15:08.963Z,74.70
2023-04-26T04:17:38.770Z,75.65
2023-04-26T04:20:06.445Z,75.41
2023-04-26T04:22:33.220Z,75.94
2023-04-26T04:24:59.697Z,75.96
2023-04-26T04:27:27.011Z,75.62
2023-04-26T04:29:53.509Z,75.35
2023-04-26T04:32:20.169Z,76.17
2023-04-26T04:34:48.319Z,76.37
2023-04-26T04:37:16.766Z,76.47
2023-04-26T04:39:44.088Z,76.46
2023-04-26T04:42:10.600Z,76.41
2023-04-26T04:44:37.310Z,76.75
2023-04-26T04:47:04.165Z,75.82
2023-04-26T04:49:30.762Z,76.11
2023-04-26T04:51:57.908Z,76.76
2023-04-26T04:54:25.209Z,76.01
2023-04-26T04:56:51.827Z,76.73
2023-04-26T04:59:19.337Z,76.90
2023-04-26T05:01:47.754Z,77.02
2023-04-26T05:04:15.855Z,75.88
2023-04-26T05:06:43.770Z,75.93
2023-04-26T05:09:10.446Z,76.84
2023-04-26T05:11:37.371Z,76.15
2023-04-26T05:14:05.277Z,75.86
2023-04-26T05:16:31.794Z,77.20
2023-04-26T05:19:00.172Z,76.75
2023-04-26T05:21:26.677Z,76.34
2023-04-26T05:23:53.449Z,77.00
2023-04-26T05:26:20.305Z,76.11
2023-04-26T05:29:15.269Z,76.94
2023-04-26T05:32:13.925Z,77.19
2023-04-26T05:34:41.349Z,76.80
2023-04-26T05:37:11.408Z,76.42
2023-04-26T05:39:37.925Z,76.09
2023-04-26T05:42:04.500Z,77.14
2023-04-26T05:44:31.751Z,76.79
2023-04-26T05:46:58.269Z,77.04
2023-04-26T05:49:26.304Z,77.11
2023-04-26T05:51:53.066Z,76.99
2023-04-26T05:54:19.563Z,76.15
2023-04-26T05:56:46.015Z,75.94
2023-04-26T05:59:12.561Z,75.45
2023-04-26T06:01:39.164Z,75.57
2023-04-26T06:04:06.101Z,75.35
2023-04-26T06:06:42.711Z,76.53
2023-04-26T06:09:09.216Z,75.48
2023-04-26T06:11:36.250Z,75.94
2023-04-26T06:14:02.725Z,76.23
2023-04-26T06:16:29.434Z,75.36
2023-04-26T06:18:56.008Z,75.54
2023-04-26T06:21:22.473Z,75.65
2023-04-26T06:23:49.049Z,75.48
2023-04-26T06:26:18.243Z,75.25
2023-04-26T06:28:46.540Z,75.89
2023-04-26T06:31:13.791Z,75.82
2023-04-26T06:33:40.842Z,74.87
2023-04-26T06:36:11.554Z,74.75
2023-04-26T06:38:38.124Z,75.23
2023-04-26T06:41:04.780Z,74.91
2023-04-26T06:43:32.336Z,75.08
2023-04-26T06:46:02.725Z,74.44
2023-04-26T06:48:29.247Z,73.78
2023-04-26T06:50:55.729Z,74.21
2023-04-26T06:53:23.168Z,74.96
2023-04-26T06:55:49.913Z,74.47
2023-04-26T06:58:16.376Z,74.50
2023-04-26T07:00:42.867Z,73.80
2023-04-26T07:03:09.464Z,73.74
2023-04-26T07:05:35.987Z,72.70
2023-04-26T07:08:02.478Z,72.64
2023-04-26T07:10:28.942Z,72.30
2023-04-26T07:12:55.421Z,72.58
2023-04-26T07:15:22.022Z,72.43
2023-04-26T07:17:48.544Z,71.89
2023-04-26T07:20:15.085Z,71.61
2023-04-26T07:22:41.657Z,71.52
2023-04-26T07:25:08.319Z,71.81
2023-04-26T07:27:34.765Z,71.46
2023-04-26T07:30:01.240Z,71.04
2023-04-26T07:32:27.855Z,70.39
2023-04-26T07:34:54.459Z,69.96
2023-04-26T07:37:20.948Z,70.12
2023-04-26T07:39:47.468Z,69.02
2023-04-26T07:42:14.052Z,68.03
2023-04-26T07:44:40.528Z,67.10
2023-04-26T07:47:13.058Z,66.98
2023-04-26T07:49:39.595Z,67.34
2023-04-26T07:52:06.067Z,66.56
2023-04-26T07:54:32.564Z,65.97
2023-04-26T07:56:58.999Z,65.37
2023-04-26T07:59:25.500Z,64.69
2023-04-26T08:01:52.052Z,64.31
2023-04-26T08:04:31.683Z,63.71
2023-04-26T08:06:58.294Z,63.76
2023-04-26T08:09:24.792Z,63.44
2023-04-26T08:11:51.313Z,63.06
2023-04-26T08:14:17.856Z,62.56
2023-04-26T08:16:44.413Z,62.03
2023-04-26T08:19:10.929Z,60.93
2023-04-26T08:21:37.393Z,60.83
2023-04-26T08:24:03.961Z,59.88
2023-04-26T08:26:30.498Z,60.50
2023-04-26T08:28:56.934Z,59.67
2023-04-26T08:31:23.511Z,59.35
2023-04-26T08:33:50.702Z,59.15
2023-04-26T08:36:17.417Z,58.47
2023-04-26T08:38:43.884Z,58.47
2023-04-26T08:41:13.421Z,58.57
2023-04-26T08:43:40.217Z,58.64
2023-04-26T08:46:10.918Z,57.39
2023-04-26T08:48:37.696Z,56.00
2023-04-26T08:51:04.785Z,55.07
2023-04-26T08:53:34.233Z,54.84
2023-04-26T08:56:02.120Z,53.98
2023-04-26T08:58:28.659Z,52.92
2023-04-26T09:00:55.509Z,52.82
2023-04-26T09:03:23.957Z,52.25
2023-04-26T09:05:50.755Z,53.11
2023-04-26T09:08:17.384Z,53.41
2023-04-26T09:10:44.261Z,52.03
2023-04-26T09:13:10.925Z,52.07
2023-04-26T09:15:37.710Z,51.89
2023-04-26T09:18:17.641Z,52.10
2023-04-26T09:20:45.470Z,52.13
2023-04-26T09:23:11.965Z,51.25
2023-04-26T09:25:38.509Z,51.78
2023-04-26T09:28:19.640Z,51.22
2023-04-26T09:30:46.229Z,50.91
2023-04-26T09:33:12.781Z,50.78
2023-04-26T09:35:41.508Z,50.26
2023-04-26T09:38:12.684Z,49.47
2023-04-26T09:40:48.186Z,49.12
2023-04-26T09:43:22.448Z,47.47
2023-04-26T09:45:51.267Z,47.12
2023-04-26T09:48:28.796Z,46.67
2023-04-26T09:50:57.005Z,45.94
2023-04-26T09:53:38.366Z,44.69
2023-04-26T09:56:11.212Z,44.56
2023-04-26T09:58:40.526Z,44.46
2023-04-26T10:01:08.718Z,43.53
2023-04-26T10:03:36.593Z,41.75
2023-04-26T10:06:04.244Z,42.79
2023-04-26T10:08:34.281Z,43.31
2023-04-26T10:11:01.220Z,41.83
2023-04-26T10:13:28.011Z,41.21
2023-04-26T10:15:55.498Z,40.68
2023-04-26T10:18:21.980Z,41.17
2023-04-26T10:20:52.064Z,40.41
2023-04-26T10:23:21.879Z,40.58
2023-04-26T10:25:48.928Z,40.51
2023-04-26T10:28:15.856Z,40.68
2023-04-26T10:31:00.726Z,40.07
2023-04-26T10:33:27.725Z,39.33
2023-04-26T10:36:00.316Z,39.14
2023-04-26T10:38:26.856Z,39.92
2023-04-26T10:40:55.108Z,39.09
2023-04-26T10:43:28.578Z,38.67
2023-04-26T10:45:55.249Z,39.74
2023-04-26T10:48:28.284Z,38.43
2023-04-26T10:51:00.782Z,38.31
2023-04-26T10:53:45.390Z,38.00
2023-04-26T10:56:32.626Z,38.93
2023-04-26T10:59:36.236Z,37.94
2023-04-26T11:02:12.647Z,37.32
2023-04-26T11:04:52.532Z,37.53
2023-04-26T11:07:39.087Z,37.13
2023-04-26T11:10:09.312Z,37.34
2023-04-26T11:12:35.822Z,37.93
2023-04-26T11:15:02.273Z,38.00
2023-04-26T11:17:28.806Z,37.12
2023-04-26T11:19:55.303Z,36.96
2023-04-26T11:22:22.477Z,36.90
2023-04-26T11:24:49.890Z,37.63
2023-04-26T11:27:16.356Z,37.41
2023-04-26T11:29:42.803Z,38.61
2023-04-26T11:32:09.356Z,38.60
2023-04-26T11:34:37.154Z,38.77
2023-04-26T11:37:05.206Z,38.28
2023-04-26T11:39:32.636Z,38.60
2023-04-26T11:42:12.648Z,38.19
2023-04-26T11:44:41.524Z,38.62
2023-04-26T11:47:09.351Z,39.05
2023-04-26T11:49:37.425Z,38.83
2023-04-26T11:52:05.106Z,38.06
2023-04-26T11:54:33.771Z,37.40
2023-04-26T11:57:00.792Z,37.45
2023-04-26T11:59:30.827Z,37.64
2023-04-26T12:01:58.262Z,37.61
2023-04-26T12:04:30.163Z,37.76
2023-04-26T12:06:57.991Z,38.34
2023-04-26T12:09:26.462Z,37.56
2023-04-26T12:12:00.290Z,37.69
2023-04-26T12:14:40.497Z,36.97
2023-04-26T12:17:07.792Z,37.19
2023-04-26T12:19:38.117Z,37.20
2023-04-26T12:22:06.081Z,37.33
2023-04-26T12:24:33.422Z,37.80
2023-04-26T12:27:02.328Z,36.96
2023-04-26T12:29:29.291Z,36.65
2023-04-26T12:31:56.619Z,36.73
2023-04-26T12:34:23.529Z,37.36
2023-04-26T12:36:50.177Z,37.41
2023-04-26T12:39:16.841Z,37.44
2023-04-26T12:41:44.916Z,37.05
2023-04-26T12:44:12.010Z,37.22
2023-04-26T12:46:38.869Z,37.21
2023-04-26T12:49:05.449Z,36.53
2023-04-26T12:51:31.910Z,36.46
2023-04-26T12:53:58.417Z,36.87
2023-04-26T12:56:25.149Z,36.25
2023-04-26T12:58:51.637Z,36.46
2023-04-26T13:01:18.182Z,37.16
2023-04-26T13:03:44.879Z,37.35
2023-04-26T13:06:12.031Z,37.65
2023-04-26T13:08:38.509Z,37.98
2023-04-26T13:11:04.975Z,38.24
2023-04-26T13:13:42.236Z,38.38
2023-04-26T13:16:10.745Z,37.43
2023-04-26T13:18:37.200Z,38.01
2023-04-26T13:21:03.917Z,37.93
2023-04-26T13:23:30.391Z,37.66
2023-04-26T13:25:56.865Z,37.51
2023-04-26T13:28:23.297Z,37.77
2023-04-26T13:30:49.887Z,37.39
2023-04-26T13:33:16.465Z,38.21
2023-04-26T13:35:42.988Z,37.92
2023-04-26T13:38:09.462Z,38.39
2023-04-26T13:40:37.634Z,37.92
2023-04-26T13:43:04.227Z,38.33
2023-04-26T13:45:30.763Z,38.89
2023-04-26T13:47:57.219Z,38.73
2023-04-26T13:50:23.733Z,38.76
2023-04-26T13:52:50.218Z,38.65
2023-04-26T13:55:16.702Z,38.31
2023-04-26T13:57:43.172Z,38.75
2023-04-26T14:00:10.197Z,37.94
2023-04-26T14:02:39.594Z,37.95
2023-04-26T14:05:06.696Z,38.11
2023-04-26T14:07:33.331Z,38.26
2023-04-26T14:09:59.913Z,37.81
2023-04-26T14:12:26.377Z,37.16
2023-04-26T14:14:52.878Z,37.57
2023-04-26T14:17:19.337Z,37.77
2023-04-26T14:19:45.816Z,38.05
2023-04-26T14:22:12.295Z,38.32
2023-04-26T14:24:39.056Z,38.98
2023-04-26T14:27:05.545Z,39.26
2023-04-26T14:29:32.018Z,39.04
2023-04-26T14:31:58.625Z,38.47
2023-04-26T14:34:25.220Z,38.58
2023-04-26T14:36:51.690Z,38.15
2023-04-26T14:39:18.169Z,38.01
2023-04-26T14:41:44.639Z,38.29
2023-04-26T14:44:11.138Z,37.82
2023-04-26T14:46:37.637Z,37.66
2023-04-26T14:49:04.233Z,38.05
2023-04-26T14:51:31.482Z,38.41
2023-04-26T14:53:57.931Z,38.77
2023-04-26T14:56:24.461Z,38.97
2023-04-26T14:58:50.936Z,39.16
2023-04-26T15:01:17.385Z,39.08
2023-04-26T15:03:44.146Z,39.35
2023-04-26T15:06:10.737Z,40.23
2023-04-26T15:08:37.222Z,40.22
2023-04-26T15:11:03.854Z,40.84
2023-04-26T15:13:30.324Z,40.71
2023-04-26T15:15:56.777Z,40.36
2023-04-26T15:18:23.305Z,40.96
2023-04-26T15:20:49.843Z,40.54
2023-04-26T15:23:16.596Z,40.98
2023-04-26T15:25:43.300Z,40.31
2023-04-26T15:28:09.803Z,40.54
2023-04-26T15:30:36.458Z,40.77
2023-04-26T15:33:03.374Z,40.33
2023-04-26T15:35:29.926Z,39.73
2023-04-26T15:37:56.363Z,40.44
2023-04-26T15:40:23.056Z,40.70
2023-04-26T15:42:49.604Z,41.12
2023-04-26T15:45:16.222Z,41.02
2023-04-26T15:47:42.849Z,40.57
2023-04-26T15:50:09.770Z,41.06
2023-04-26T15:52:39.178Z,41.16
2023-04-26T15:55:06.898Z,41.53
2023-04-26T15:57:34.099Z,41.72
2023-04-26T16:00:00.687Z,41.43
2023-04-26T16:02:27.476Z,41.85
2023-04-26T16:04:54.155Z,41.91
2023-04-26T16:07:20.625Z,41.95
2023-04-26T16:09:47.069Z,42.06
2023-04-26T16:12:13.522Z,42.32
2023-04-26T16:14:40.013Z,42.34
2023-04-26T16:17:06.454Z,42.50
2023-04-26T16:19:32.956Z,42.86
2023-04-26T16:21:59.392Z,43.43
2023-04-26T16:24:25.888Z,43.44
2023-04-26T16:26:52.362Z,43.80
2023-04-26T16:29:18.822Z,44.08
2023-04-26T16:31:45.354Z,43.87
2023-04-26T16:34:11.895Z,43.66
2023-04-26T16:36:38.327Z,44.17
2023-04-26T16:39:04.770Z,44.41
2023-04-26T16:41:31.285Z,44.85
2023-04-26T16:43:57.767Z,45.14
2023-04-26T16:46:24.322Z,44.92
2023-04-26T16:48:51.074Z,45.12
2023-04-26T16:51:17.593Z,44.63
2023-04-26T16:53:44.148Z,45.41
2023-04-26T16:56:10.710Z,45.23
2023-04-26T16:58:37.355Z,45.83
2023-04-26T17:01:03.846Z,45.72
2023-04-26T17:03:30.624Z,46.56
2023-04-26T17:05:57.215Z,46.45
2023-04-26T17:08:23.697Z,46.75
2023-04-26T17:10:50.178Z,46.48
2023-04-26T17:13:16.862Z,47.00
2023-04-26T17:15:43.524Z,46.85
2023-04-26T17:18:10.460Z,46.72
2023-04-26T17:20:37.031Z,46.66
2023-04-26T17:23:04.206Z,46.74
2023-04-26T17:25:31.652Z,46.58
2023-04-26T17:27:58.362Z,46.92
2023-04-26T17:30:24.876Z,46.93
2023-04-26T17:32:51.350Z,47.08
2023-04-26T17:35:17.891Z,47.48
2023-04-26T17:37:45.153Z,47.37
2023-04-26T17:40:11.904Z,46.48
2023-04-26T17:42:38.368Z,46.82
2023-04-26T17:45:05.418Z,47.24
2023-04-26T17:47:32.017Z,47.09
2023-04-26T17:49:59.000Z,47.13
2023-04-26T17:52:25.468Z,46.98
2023-04-26T17:54:51.994Z,47.55
2023-04-26T17:57:18.564Z,47.29
2023-04-26T17:59:45.070Z,47.04
2023-04-26T18:02:11.635Z,47.14
2023-04-26T18:04:38.452Z,46.65
2023-04-26T18:07:05.275Z,46.73
2023-04-26T18:09:31.749Z,46.64
2023-04-26T18:11:58.224Z,47.04
2023-04-26T18:14:24.754Z,46.98
2023-04-26T18:16:51.286Z,46.70
2023-04-26T18:19:18.018Z,46.39
2023-04-26T18:21:44.961Z,46.15
2023-04-26T18:24:11.430Z,45.76
2023-04-26T18:26:39.068Z,45.86
2023-04-26T18:29:06.280Z,45.44
2023-04-26T18:31:33.643Z,45.78
2023-04-26T18:34:00.118Z,45.49
2023-04-26T18:36:26.581Z,45.48
2023-04-26T18:38:53.107Z,46.18
2023-04-26T18:41:19.632Z,45.77
2023-04-26T18:43:46.093Z,45.66
2023-04-26T18:46:12.715Z,46.22
2023-04-26T18:48:39.176Z,45.94
2023-04-26T18:51:05.703Z,46.21
2023-04-26T18:53:32.211Z,45.93
2023-04-26T18:55:58.764Z,46.54
2023-04-26T18:58:25.239Z,46.28
2023-04-26T19:00:51.718Z,46.51
2023-04-26T19:03:18.462Z,46.90
2023-04-26T19:05:45.218Z,46.57
2023-04-26T19:08:11.706Z,46.53
2023-04-26T19:10:38.163Z,46.99
2023-04-26T19:13:05.106Z,46.60
2023-04-26T19:15:33.158Z,47.25
2023-04-26T19:17:59.891Z,46.67
2023-04-26T19:20:26.399Z,47.06
2023-04-26T19:22:53.249Z,46.99
2023-04-26T19:25:21.801Z,47.06
2023-04-26T19:27:49.184Z,47.23
2023-04-26T19:30:15.828Z,47.34
2023-04-26T19:32:42.778Z,47.45
2023-04-26T19:35:09.459Z,47.68
2023-04-26T19:37:35.952Z,47.91
2023-04-26T19:40:03.384Z,47.57
2023-04-26T19:42:29.890Z,47.85
2023-04-26T19:44:57.569Z,47.75
2023-04-26T19:47:24.037Z,48.19
2023-04-26T19:49:50.478Z,47.91
2023-04-26T19:52:16.988Z,47.92
2023-04-26T19:54:46.970Z,47.99
2023-04-26T19:57:13.494Z,48.50
2023-04-26T19:59:40.015Z,48.53
2023-04-26T20:02:06.635Z,48.63
2023-04-26T20:04:33.296Z,48.55
2023-04-26T20:07:00.010Z,48.53
2023-04-26T20:09:26.441Z,48.45
2023-04-26T20:11:54.269Z,48.86
2023-04-26T20:14:20.718Z,48.69
2023-04-26T20:16:47.345Z,49.06
2023-04-26T20:19:14.566Z,49.37
2023-04-26T20:21:41.960Z,48.77
2023-04-26T20:24:08.647Z,49.15
2023-04-26T20:26:35.209Z,49.34
2023-04-26T20:29:01.773Z,49.83
2023-04-26T20:31:28.253Z,50.34
2023-04-26T20:33:54.768Z,49.96
2023-04-26T20:36:21.703Z,49.70
2023-04-26T20:38:48.175Z,49.63
2023-04-26T20:41:14.669Z,49.61
2023-04-26T20:43:41.158Z,49.80
2023-04-26T20:46:07.756Z,50.03
2023-04-26T20:48:34.286Z,50.56
2023-04-26T20:51:00.850Z,50.78
2023-04-26T20:53:27.397Z,51.16
2023-04-26T20:55:54.054Z,51.79
2023-04-26T20:58:20.530Z,52.38
2023-04-26T21:00:49.295Z,52.49
2023-04-26T21:03:15.888Z,52.71
2023-04-26T21:05:42.430Z,52.93
2023-04-26T21:08:08.865Z,52.56
2023-04-26T21:10:35.315Z,52.79
2023-04-26T21:13:01.836Z,53.08
2023-04-26T21:15:28.366Z,53.19
2023-04-26T21:17:54.886Z,53.80
2023-04-26T21:20:21.428Z,54.10
2023-04-26T21:22:47.864Z,54.82
2023-04-26T21:25:14.454Z,55.27
2023-04-26T21:27:40.936Z,55.49
2023-04-26T21:30:08.011Z,55.95
2023-04-26T21:32:34.977Z,55.88
2023-04-26T21:35:01.488Z,55.97
2023-04-26T21:37:27.926Z,56.15
2023-04-26T21:39:54.400Z,56.62
2023-04-26T21:42:20.828Z,56.50
2023-04-26T21:44:47.262Z,56.56
2023-04-26T21:47:13.691Z,56.62
2023-04-26T21:49:40.145Z,56.73
2023-04-26T21:52:06.618Z,56.80
2023-04-26T21:54:33.103Z,56.53
2023-04-26T21:56:59.567Z,57.47
2023-04-26T21:59:26.032Z,57.95
2023-04-26T22:01:52.546Z,58.03
2023-04-26T22:04:19.273Z,58.13
2023-04-26T22:06:45.808Z,58.36
2023-04-26T22:09:12.454Z,58.29
2023-04-26T22:11:39.682Z,58.18
2023-04-26T22:14:06.205Z,58.51
2023-04-26T22:16:32.692Z,57.91
2023-04-26T22:18:59.198Z,58.21
2023-04-26T22:21:25.775Z,58.37
2023-04-26T22:23:52.415Z,58.19
2023-04-26T22:26:18.914Z,57.87
2023-04-26T22:28:45.378Z,58.33
2023-04-26T22:31:11.827Z,57.98
2023-04-26T22:33:38.316Z,58.39
2023-04-26T22:36:05.152Z,58.35
2023-04-26T22:38:31.660Z,58.62
2023-04-26T22:40:58.135Z,58.11
2023-04-26T22:43:24.604Z,58.44
2023-04-26T22:45:51.073Z,58.54
2023-04-26T22:48:17.608Z,58.15
2023-04-26T22:50:44.096Z,58.55
2023-04-26T22:53:10.604Z,57.99
2023-04-26T22:55:37.022Z,58.22
2023-04-26T22:58:03.506Z,58.02
2023-04-26T23:00:30.062Z,58.53
2023-04-26T23:02:56.639Z,58.47
2023-04-26T23:05:23.203Z,58.80
2023-04-26T23:07:49.740Z,58.54
2023-04-26T23:10:16.257Z,58.75
2023-04-26T23:12:42.730Z,59.05
2023-04-26T23:15:09.631Z,58.95
2023-04-26T23:17:36.150Z,59.10
2023-04-26T23:20:03.352Z,59.43
2023-04-26T23:22:29.832Z,59.43
2023-04-26T23:24:56.265Z,59.17
2023-04-26T23:27:22.760Z,59.32
2023-04-26T23:29:50.107Z,59.49
2023-04-26T23:32:16.529Z,59.37
2023-04-26T23:34:42.974Z,60.08
2023-04-26T23:37:09.455Z,59.74
2023-04-26T23:39:36.088Z,60.02
2023-04-26T23:42:02.863Z,59.65
2023-04-26T23:44:29.422Z,59.62
2023-04-26T23:46:56.058Z,60.22
2023-04-26T23:49:22.691Z,60.31
2023-04-26T23:51:52.152Z,60.31
2023-04-26T23:54:18.662Z,60.39
2023-04-26T23:56:45.254Z,60.63
2023-04-26T23:59:12.107Z,60.90
